EFSI

Seinäjoki Airport

Seinäjoki / Ilmajoki, Finland
METAR EFSI 161820Z AUTO 13002KT CAVOK 01/01 Q1020
Observed Flight Rules
Oct-16 @ 18:20 UTC (18 minutes ago) Visual Flight Rules
Wind Visibility Clouds
130° at 2 knots 10,000+ meters
  • Clear skies
Temperatures Readings
Current 1°C / 34°F
Dewpoint 1°C / 34°F
Humidity 100%
Altimeter 30.12" Hg
Pressure 1020 hPa
Elevation 91
METAR EFSI 161820Z AUTO 13002KT CAVOK 01/01 Q1020
Observed Flight Rules
Oct-16 @ 18:20 UTC
(18 minutes ago)
VFR
Wind Visibility
130° at 2 knots 10,000+ meters
Clouds
  • Clear skies
Temperature Dewpoint
1°C / 34°F 1°C / 34°F
Humidity Altimeter Pressure
100% 30.12" Hg 1020 hPa